createdAt,value
2018-05-23T00:00:33.643Z,0
2018-05-23T00:01:33.956Z,0
2018-05-23T00:02:33.687Z,0
2018-05-23T00:03:33.972Z,0
2018-05-23T00:04:34.000Z,0
2018-05-23T00:05:33.831Z,0
2018-05-23T00:06:33.804Z,0
2018-05-23T00:07:33.863Z,0
2018-05-23T00:08:33.581Z,0
2018-05-23T00:09:33.596Z,0
2018-05-23T00:10:34.219Z,0
2018-05-23T00:11:33.908Z,0
2018-05-23T00:12:34.193Z,0
2018-05-23T00:13:33.697Z,0
2018-05-23T00:14:33.986Z,0
2018-05-23T00:15:34.257Z,0
2018-05-23T00:16:34.054Z,0
2018-05-23T00:17:34.305Z,0
2018-05-23T00:18:34.079Z,0
2018-05-23T00:19:34.345Z,0
2018-05-23T00:20:34.376Z,0
2018-05-23T00:21:34.404Z,0
2018-05-23T00:22:34.222Z,0
2018-05-23T00:23:34.190Z,0
2018-05-23T00:24:34.227Z,0
2018-05-23T00:25:33.982Z,0
2018-05-23T00:26:33.762Z,0
2018-05-23T00:27:33.778Z,0
2018-05-23T00:28:34.309Z,0
2018-05-23T00:29:33.817Z,0
2018-05-23T00:30:34.610Z,0
2018-05-23T00:31:34.638Z,0
2018-05-23T00:32:34.162Z,0
2018-05-23T00:33:33.913Z,0
2018-05-23T00:34:34.446Z,0
2018-05-23T00:35:34.617Z,0
2018-05-23T00:36:34.234Z,0
2018-05-23T00:37:34.334Z,0
2018-05-23T00:38:34.254Z,0
2018-05-23T00:39:34.569Z,0
2018-05-23T00:40:34.799Z,0
2018-05-23T00:41:34.567Z,0
2018-05-23T00:42:34.345Z,0
2018-05-23T00:43:34.866Z,0
2018-05-23T00:44:34.892Z,0
2018-05-23T00:45:34.163Z,0
2018-05-23T00:46:34.434Z,0
2018-05-23T00:47:34.710Z,0
2018-05-23T00:48:34.989Z,0
2018-05-23T00:49:34.801Z,0
2018-05-23T00:50:34.573Z,0
2018-05-23T00:51:34.842Z,0
2018-05-23T00:52:35.167Z,0
2018-05-23T00:53:34.889Z,0
2018-05-23T00:54:34.911Z,0
2018-05-23T00:55:34.935Z,0
2018-05-23T00:56:35.213Z,0
2018-05-23T00:57:34.735Z,0
2018-05-23T00:58:35.284Z,0
2018-05-23T00:59:35.279Z,0
2018-05-23T01:00:35.319Z,0
2018-05-23T01:01:35.339Z,0
2018-05-23T01:02:34.848Z,0
2018-05-23T01:03:35.377Z,0
2018-05-23T01:04:35.151Z,0
2018-05-23T01:05:35.175Z,0
2018-05-23T01:06:35.450Z,0
2018-05-23T01:07:35.620Z,0
2018-05-23T01:08:35.248Z,0
2018-05-23T01:09:35.521Z,0
2018-05-23T01:10:35.028Z,0
2018-05-23T01:11:34.805Z,0
2018-05-23T01:12:35.080Z,0
2018-05-23T01:13:35.353Z,0
2018-05-23T01:14:35.382Z,0
2018-05-23T01:15:35.676Z,0
2018-05-23T01:16:35.674Z,0
2018-05-23T01:17:35.302Z,0
2018-05-23T01:18:35.732Z,0
2018-05-23T01:19:35.246Z,0
2018-05-23T01:20:35.017Z,0
2018-05-23T01:21:35.547Z,0
2018-05-23T01:22:35.117Z,0
2018-05-23T01:23:35.091Z,0
2018-05-23T01:24:35.620Z,0
2018-05-23T01:25:35.891Z,0
2018-05-23T01:26:35.737Z,0
2018-05-23T01:27:35.688Z,0
2018-05-23T01:28:35.723Z,0
2018-05-23T01:29:35.498Z,0
2018-05-23T01:30:36.018Z,0
2018-05-23T01:31:35.783Z,0
2018-05-23T01:32:36.052Z,0
2018-05-23T01:33:36.075Z,0
2018-05-23T01:34:35.851Z,0
2018-05-23T01:35:35.870Z,0
2018-05-23T01:36:35.906Z,0
2018-05-23T01:37:35.968Z,0
2018-05-23T01:38:36.196Z,0
2018-05-23T01:39:35.964Z,0
2018-05-23T01:40:36.318Z,0
2018-05-23T01:41:36.024Z,0
2018-05-23T01:42:35.781Z,0
2018-05-23T01:43:35.824Z,0
2018-05-23T01:44:36.092Z,0
2018-05-23T01:45:35.852Z,0
2018-05-23T01:46:36.134Z,0
2018-05-23T01:47:36.434Z,0
2018-05-23T01:48:36.171Z,0
2018-05-23T01:49:36.457Z,0
2018-05-23T01:50:35.988Z,0
2018-05-23T01:51:35.733Z,0
2018-05-23T01:52:36.312Z,0
2018-05-23T01:53:36.260Z,0
2018-05-23T01:54:36.543Z,0
2018-05-23T01:55:36.046Z,0
2018-05-23T01:56:36.074Z,0
2018-05-23T01:57:36.381Z,0
2018-05-23T01:58:36.657Z,0
2018-05-23T01:59:36.691Z,0
2018-05-23T02:00:36.704Z,0
2018-05-23T02:01:36.727Z,0
2018-05-23T02:02:36.499Z,0
2018-05-23T02:03:36.764Z,0
2018-05-23T02:04:36.280Z,0
2018-05-23T02:05:36.301Z,0
2018-05-23T02:06:36.578Z,0
2018-05-23T02:07:36.923Z,0
2018-05-23T02:08:36.116Z,0
2018-05-23T02:09:36.905Z,0
2018-05-23T02:10:36.936Z,0
2018-05-23T02:11:36.950Z,0
2018-05-23T02:12:37.001Z,0
2018-05-23T02:13:36.991Z,0
2018-05-23T02:14:37.003Z,0
2018-05-23T02:15:36.774Z,0
2018-05-23T02:16:37.072Z,0
2018-05-23T02:17:37.093Z,0
2018-05-23T02:18:36.859Z,0
2018-05-23T02:19:36.889Z,0
2018-05-23T02:20:36.911Z,0
2018-05-23T02:21:37.182Z,0
2018-05-23T02:22:38.200Z,0
2018-05-23T02:23:36.984Z,0
2018-05-23T02:24:37.259Z,0
2018-05-23T02:25:36.760Z,0
2018-05-23T02:26:36.779Z,0
2018-05-23T02:27:37.056Z,0
2018-05-23T02:28:37.085Z,0
2018-05-23T02:29:37.131Z,0
2018-05-23T02:30:37.166Z,0
2018-05-23T02:31:37.171Z,0
2018-05-23T02:32:36.936Z,0
2018-05-23T02:33:36.967Z,0
2018-05-23T02:34:37.492Z,0
2018-05-23T02:35:37.009Z,0
2018-05-23T02:36:36.785Z,0
2018-05-23T02:37:37.605Z,0
2018-05-23T02:38:37.338Z,0
2018-05-23T02:39:37.097Z,0
2018-05-23T02:40:37.119Z,0
2018-05-23T02:41:37.137Z,0
2018-05-23T02:42:37.156Z,0
2018-05-23T02:43:37.712Z,0
2018-05-23T02:44:37.469Z,0
2018-05-23T02:45:37.485Z,0
2018-05-23T02:46:37.516Z,0
2018-05-23T02:47:37.785Z,0
2018-05-23T02:48:37.546Z,0
2018-05-23T02:49:37.591Z,0
2018-05-23T02:50:37.851Z,0
2018-05-23T02:51:37.872Z,0
2018-05-23T02:52:37.963Z,0
2018-05-23T02:53:37.919Z,0
2018-05-23T02:54:37.937Z,0
2018-05-23T02:55:37.974Z,0
2018-05-23T02:56:37.762Z,0
2018-05-23T02:57:38.018Z,0
2018-05-23T02:58:38.029Z,0
2018-05-23T02:59:38.040Z,0
2018-05-23T03:00:37.555Z,0
2018-05-23T03:01:37.839Z,0
2018-05-23T03:02:38.134Z,0
2018-05-23T03:03:37.645Z,0
2018-05-23T03:04:37.930Z,0
2018-05-23T03:05:38.195Z,0
2018-05-23T03:06:37.464Z,0
2018-05-23T03:07:37.791Z,0
2018-05-23T03:08:38.267Z,0
2018-05-23T03:09:38.293Z,0
2018-05-23T03:10:38.311Z,0
2018-05-23T03:11:38.073Z,0
2018-05-23T03:12:38.375Z,0
2018-05-23T03:13:38.368Z,0
2018-05-23T03:14:38.412Z,0
2018-05-23T03:15:38.421Z,0
2018-05-23T03:16:37.934Z,0
2018-05-23T03:17:37.962Z,0
2018-05-23T03:18:37.977Z,0
2018-05-23T03:19:38.002Z,0
2018-05-23T03:20:38.540Z,0
2018-05-23T03:21:38.052Z,0
2018-05-23T03:22:38.644Z,0
2018-05-23T03:23:38.616Z,0
2018-05-23T03:24:38.640Z,5
2018-05-23T03:25:38.393Z,5
2018-05-23T03:26:38.434Z,5
2018-05-23T03:27:38.457Z,5
2018-05-23T03:28:38.470Z,5
2018-05-23T03:29:38.744Z,5
2018-05-23T03:30:38.264Z,5
2018-05-23T03:31:38.807Z,5
2018-05-23T03:32:38.352Z,5
2018-05-23T03:33:38.589Z,10
2018-05-23T03:34:38.609Z,10
2018-05-23T03:35:38.883Z,10
2018-05-23T03:36:38.907Z,10
2018-05-23T03:37:38.987Z,10
2018-05-23T03:38:38.705Z,15
2018-05-23T03:39:38.714Z,15
2018-05-23T03:40:38.732Z,15
2018-05-23T03:41:38.754Z,15
2018-05-23T03:42:39.033Z,15
2018-05-23T03:43:39.057Z,20
2018-05-23T03:44:39.085Z,20
2018-05-23T03:45:39.104Z,20
2018-05-23T03:46:39.136Z,20
2018-05-23T03:47:39.151Z,25
2018-05-23T03:48:38.409Z,25
2018-05-23T03:49:39.159Z,25
2018-05-23T03:50:39.192Z,25
2018-05-23T03:51:39.205Z,30
2018-05-23T03:52:38.801Z,30
2018-05-23T03:53:39.291Z,30
2018-05-23T03:54:39.309Z,30
2018-05-23T03:55:39.087Z,30
2018-05-23T03:56:38.584Z,35
2018-05-23T03:57:38.863Z,35
2018-05-23T03:58:39.133Z,35
2018-05-23T03:59:39.161Z,35
2018-05-23T04:00:38.921Z,35
2018-05-23T04:01:39.207Z,40
2018-05-23T04:02:38.985Z,40
2018-05-23T04:03:39.250Z,40
2018-05-23T04:04:39.526Z,45
2018-05-23T04:05:39.560Z,45
2018-05-23T04:06:39.594Z,50
2018-05-23T04:07:39.394Z,50
2018-05-23T04:08:39.606Z,50
2018-05-23T04:09:39.729Z,55
2018-05-23T04:10:39.141Z,55
2018-05-23T04:11:39.165Z,55
2018-05-23T04:12:39.437Z,55
2018-05-23T04:13:39.453Z,55
2018-05-23T04:14:39.527Z,60
2018-05-23T04:15:39.668Z,60
2018-05-23T04:16:39.019Z,60
2018-05-23T04:17:39.950Z,65
2018-05-23T04:18:39.816Z,65
2018-05-23T04:19:39.596Z,65
2018-05-23T04:20:39.634Z,70
2018-05-23T04:21:39.663Z,70
2018-05-23T04:22:39.482Z,75
2018-05-23T04:23:39.707Z,75
2018-05-23T04:24:39.735Z,75
2018-05-23T04:25:39.749Z,75
2018-05-23T04:26:40.042Z,80
2018-05-23T04:27:40.099Z,80
2018-05-23T04:28:40.062Z,85
2018-05-23T04:29:39.837Z,85
2018-05-23T04:30:39.607Z,90
2018-05-23T04:31:39.886Z,90
2018-05-23T04:32:40.152Z,90
2018-05-23T04:33:39.934Z,90
2018-05-23T04:34:39.957Z,90
2018-05-23T04:35:39.740Z,95
2018-05-23T04:36:39.486Z,95
2018-05-23T04:37:40.075Z,95
2018-05-23T04:38:40.296Z,95
2018-05-23T04:39:40.072Z,95
2018-05-23T04:40:39.588Z,95
2018-05-23T04:41:39.863Z,100
2018-05-23T04:42:40.435Z,100
2018-05-23T04:43:39.651Z,100
2018-05-23T04:44:40.435Z,100
2018-05-23T04:45:40.457Z,100
2018-05-23T04:46:40.493Z,90
2018-05-23T04:47:40.507Z,90
2018-05-23T04:48:40.419Z,90
2018-05-23T04:49:40.048Z,90
2018-05-23T04:50:40.063Z,95
2018-05-23T04:51:40.329Z,95
2018-05-23T04:52:40.334Z,100
2018-05-23T04:53:40.619Z,100
2018-05-23T04:54:40.637Z,100
2018-05-23T04:55:40.161Z,100
2018-05-23T04:56:40.680Z,100
2018-05-23T04:57:40.752Z,100
2018-05-23T04:58:40.472Z,100
2018-05-23T04:59:40.491Z,100
2018-05-23T05:00:40.517Z,105
2018-05-23T05:01:40.589Z,105
2018-05-23T05:02:40.841Z,105
2018-05-23T05:03:40.864Z,105
2018-05-23T05:04:40.380Z,110
2018-05-23T05:05:40.940Z,110
2018-05-23T05:06:40.675Z,110
2018-05-23T05:07:41.005Z,110
2018-05-23T05:08:40.720Z,110
2018-05-23T05:09:41.004Z,110
2018-05-23T05:10:40.521Z,115
2018-05-23T05:11:41.129Z,115
2018-05-23T05:12:40.820Z,115
2018-05-23T05:13:40.936Z,120
2018-05-23T05:14:40.868Z,120
2018-05-23T05:15:40.629Z,120
2018-05-23T05:16:40.904Z,120
2018-05-23T05:17:40.945Z,120
2018-05-23T05:18:40.960Z,120
2018-05-23T05:19:41.061Z,125
2018-05-23T05:20:41.000Z,125
2018-05-23T05:21:41.025Z,125
2018-05-23T05:22:40.829Z,130
2018-05-23T05:23:40.796Z,130
2018-05-23T05:24:41.106Z,130
2018-05-23T05:25:41.370Z,130
2018-05-23T05:26:41.143Z,125
2018-05-23T05:27:41.163Z,125
2018-05-23T05:28:41.446Z,125
2018-05-23T05:29:41.466Z,125
2018-05-23T05:30:41.006Z,125
2018-05-23T05:31:41.635Z,125
2018-05-23T05:32:41.282Z,130
2018-05-23T05:33:41.302Z,130
2018-05-23T05:34:41.582Z,135
2018-05-23T05:35:41.357Z,135
2018-05-23T05:36:41.645Z,135
2018-05-23T05:37:41.449Z,140
2018-05-23T05:38:41.723Z,140
2018-05-23T05:39:41.697Z,140
2018-05-23T05:40:41.792Z,140
2018-05-23T05:41:41.504Z,140
2018-05-23T05:42:41.261Z,140
2018-05-23T05:43:41.536Z,145
2018-05-23T05:44:41.315Z,145
2018-05-23T05:45:41.836Z,145
2018-05-23T05:46:41.620Z,150
2018-05-23T05:47:41.625Z,155
2018-05-23T05:48:41.916Z,155
2018-05-23T05:49:41.684Z,160
2018-05-23T05:50:41.961Z,165
2018-05-23T05:51:41.490Z,175
2018-05-23T05:52:41.498Z,175
2018-05-23T05:53:42.031Z,180
2018-05-23T05:54:41.799Z,180
2018-05-23T05:55:42.069Z,185
2018-05-23T05:56:42.092Z,190
2018-05-23T05:57:42.114Z,190
2018-05-23T05:58:41.645Z,195
2018-05-23T05:59:42.167Z,195
2018-05-23T06:00:42.194Z,200
2018-05-23T06:01:42.226Z,200
2018-05-23T06:02:41.992Z,200
2018-05-23T06:03:42.008Z,200
2018-05-23T06:04:42.035Z,205
2018-05-23T06:05:41.808Z,205
2018-05-23T06:06:42.335Z,205
2018-05-23T06:07:42.107Z,205
2018-05-23T06:08:41.934Z,205
2018-05-23T06:09:42.202Z,205
2018-05-23T06:10:42.443Z,205
2018-05-23T06:11:42.456Z,210
2018-05-23T06:12:42.493Z,210
2018-05-23T06:13:42.594Z,210
2018-05-23T06:14:42.546Z,210
2018-05-23T06:15:42.303Z,210
2018-05-23T06:16:42.068Z,215
2018-05-23T06:17:42.357Z,215
2018-05-23T06:18:42.390Z,215
2018-05-23T06:19:42.648Z,215
2018-05-23T06:20:42.169Z,215
2018-05-23T06:21:42.445Z,215
2018-05-23T06:22:42.217Z,215
2018-05-23T06:23:42.285Z,215
2018-05-23T06:24:42.005Z,215
2018-05-23T06:25:42.788Z,215
2018-05-23T06:26:42.819Z,215
2018-05-23T06:27:42.808Z,215
2018-05-23T06:28:42.586Z,215
2018-05-23T06:29:42.383Z,215
2018-05-23T06:30:42.662Z,215
2018-05-23T06:31:42.935Z,215
2018-05-23T06:32:42.451Z,220
2018-05-23T06:33:42.277Z,220
2018-05-23T06:34:42.761Z,225
2018-05-23T06:35:43.125Z,230
2018-05-23T06:36:42.804Z,240
2018-05-23T06:37:43.109Z,240
2018-05-23T06:38:42.882Z,240
2018-05-23T06:39:42.853Z,245
2018-05-23T06:40:43.143Z,245
2018-05-23T06:41:42.906Z,250
2018-05-23T06:42:42.934Z,250
2018-05-23T06:43:43.720Z,250
2018-05-23T06:44:43.237Z,255
2018-05-23T06:45:43.308Z,260
2018-05-23T06:46:42.775Z,265
2018-05-23T06:47:43.048Z,275
2018-05-23T06:48:43.162Z,280
2018-05-23T06:49:42.610Z,280
2018-05-23T06:50:43.402Z,285
2018-05-23T06:51:43.420Z,290
2018-05-23T06:52:43.452Z,290
2018-05-23T06:53:43.276Z,290
2018-05-23T06:54:42.983Z,285
2018-05-23T06:55:42.597Z,285
2018-05-23T06:56:43.551Z,285
2018-05-23T06:57:43.574Z,285
2018-05-23T06:58:43.080Z,285
2018-05-23T06:59:43.367Z,290
2018-05-23T07:00:43.394Z,290
2018-05-23T07:01:43.675Z,295
2018-05-23T07:02:43.455Z,295
2018-05-23T07:03:43.463Z,300
2018-05-23T07:04:43.505Z,300
2018-05-23T07:05:43.806Z,300
2018-05-23T07:06:43.892Z,300
2018-05-23T07:07:43.568Z,300
2018-05-23T07:08:45.142Z,305
2018-05-23T07:09:43.878Z,300
2018-05-23T07:10:43.647Z,300
2018-05-23T07:11:44.026Z,315
2018-05-23T07:12:43.171Z,290
2018-05-23T07:13:43.705Z,290
2018-05-23T07:14:43.226Z,290
2018-05-23T07:15:43.502Z,290
2018-05-23T07:16:43.523Z,295
2018-05-23T07:17:44.099Z,290
2018-05-23T07:18:43.331Z,290
2018-05-23T07:19:44.128Z,290
2018-05-23T07:20:43.888Z,290
2018-05-23T07:21:43.920Z,295
2018-05-23T07:22:43.686Z,295
2018-05-23T07:23:44.038Z,295
2018-05-23T07:24:43.743Z,300
2018-05-23T07:25:44.267Z,305
2018-05-23T07:26:44.304Z,310
2018-05-23T07:27:44.409Z,315
2018-05-23T07:28:44.087Z,330
2018-05-23T07:29:44.380Z,340
2018-05-23T07:30:44.142Z,345
2018-05-23T07:31:44.028Z,355
2018-05-23T07:32:44.192Z,355
2018-05-23T07:33:44.282Z,360
2018-05-23T07:34:44.515Z,350
2018-05-23T07:35:44.291Z,345
2018-05-23T07:36:44.296Z,345
2018-05-23T07:37:44.330Z,345
2018-05-23T07:38:44.354Z,350
2018-05-23T07:39:44.626Z,350
2018-05-23T07:40:44.397Z,350
2018-05-23T07:41:44.435Z,355
2018-05-23T07:42:44.719Z,355
2018-05-23T07:43:44.730Z,355
2018-05-23T07:44:44.523Z,355
2018-05-23T07:45:44.620Z,355
2018-05-23T07:46:44.568Z,355
2018-05-23T07:47:44.577Z,350
2018-05-23T07:48:44.666Z,360
2018-05-23T07:49:44.373Z,335
2018-05-23T07:50:44.901Z,320
2018-05-23T07:51:44.184Z,315
2018-05-23T07:52:44.959Z,335
2018-05-23T07:53:44.981Z,345
2018-05-23T07:54:44.762Z,320
2018-05-23T07:55:44.524Z,325
2018-05-23T07:56:45.469Z,330
2018-05-23T07:57:44.846Z,345
2018-05-23T07:58:46.065Z,350
2018-05-23T07:59:45.150Z,350
2018-05-23T08:00:44.915Z,350
2018-05-23T08:01:44.685Z,350
2018-05-23T08:02:44.970Z,345
2018-05-23T08:03:45.315Z,345
2018-05-23T08:04:45.268Z,340
2018-05-23T08:05:45.016Z,335
2018-05-23T08:06:45.039Z,335
2018-05-23T08:07:44.813Z,330
2018-05-23T08:08:44.595Z,330
2018-05-23T08:09:45.118Z,325
2018-05-23T08:10:44.894Z,325
2018-05-23T08:11:44.916Z,320
2018-05-23T08:12:45.473Z,305
2018-05-23T08:13:44.984Z,290
2018-05-23T08:14:45.539Z,270
2018-05-23T08:15:45.315Z,265
2018-05-23T08:16:45.334Z,260
2018-05-23T08:17:45.362Z,255
2018-05-23T08:18:46.657Z,250
2018-05-23T08:19:45.414Z,255
2018-05-23T08:20:45.188Z,260
2018-05-23T08:21:45.556Z,250
2018-05-23T08:22:45.751Z,260
2018-05-23T08:23:45.781Z,285
2018-05-23T08:24:45.805Z,350
2018-05-23T08:25:45.582Z,330
2018-05-23T08:26:45.325Z,380
2018-05-23T08:27:45.680Z,375
2018-05-23T08:28:45.456Z,390
2018-05-23T08:29:46.038Z,385
2018-05-23T08:30:45.213Z,380
2018-05-23T08:31:46.000Z,380
2018-05-23T08:32:45.763Z,370
2018-05-23T08:33:45.284Z,360
2018-05-23T08:34:45.976Z,350
2018-05-23T08:35:45.841Z,340
2018-05-23T08:36:45.616Z,340
2018-05-23T08:37:46.146Z,340
2018-05-23T08:38:46.180Z,340
2018-05-23T08:39:45.691Z,340
2018-05-23T08:40:45.971Z,340
2018-05-23T08:41:46.001Z,340
2018-05-23T08:42:45.772Z,340
2018-05-23T08:43:46.050Z,340
2018-05-23T08:44:46.336Z,340
2018-05-23T08:45:45.874Z,340
2018-05-23T08:46:46.132Z,345
2018-05-23T08:47:46.177Z,345
2018-05-23T08:48:46.185Z,345
2018-05-23T08:49:46.505Z,340
2018-05-23T08:50:46.212Z,350
2018-05-23T08:51:46.272Z,350
2018-05-23T08:52:46.056Z,350
2018-05-23T08:53:46.578Z,345
2018-05-23T08:54:46.346Z,335
2018-05-23T08:55:46.625Z,345
2018-05-23T08:56:46.405Z,330
2018-05-23T08:57:46.680Z,345
2018-05-23T08:58:46.457Z,340
2018-05-23T08:59:46.486Z,350
2018-05-23T09:00:46.495Z,350
2018-05-23T09:01:46.510Z,355
2018-05-23T09:02:46.812Z,360
2018-05-23T09:03:46.838Z,365
2018-05-23T09:04:46.970Z,370
2018-05-23T09:05:46.644Z,370
2018-05-23T09:06:46.912Z,370
2018-05-23T09:07:46.955Z,370
2018-05-23T09:08:46.991Z,370
2018-05-23T09:09:46.750Z,380
2018-05-23T09:10:46.517Z,380
2018-05-23T09:11:47.049Z,380
2018-05-23T09:12:46.774Z,380
2018-05-23T09:13:46.848Z,390
2018-05-23T09:14:47.186Z,390
2018-05-23T09:15:46.904Z,385
2018-05-23T09:16:46.699Z,390
2018-05-23T09:17:46.708Z,390
2018-05-23T09:18:46.988Z,390
2018-05-23T09:19:48.280Z,395
2018-05-23T09:20:47.038Z,380
2018-05-23T09:21:47.299Z,370
2018-05-23T09:22:46.821Z,375
2018-05-23T09:23:47.378Z,390
2018-05-23T09:24:47.177Z,390
2018-05-23T09:25:47.449Z,385
2018-05-23T09:26:47.215Z,390
2018-05-23T09:27:47.231Z,395
2018-05-23T09:28:47.259Z,395
2018-05-23T09:29:47.352Z,395
2018-05-23T09:30:47.323Z,405
2018-05-23T09:31:47.584Z,395
2018-05-23T09:32:47.706Z,365
2018-05-23T09:33:47.639Z,400
2018-05-23T09:34:47.408Z,400
2018-05-23T09:35:47.197Z,400
2018-05-23T09:36:47.482Z,420
2018-05-23T09:37:47.510Z,445
2018-05-23T09:38:47.792Z,460
2018-05-23T09:39:47.567Z,410
2018-05-23T09:40:47.346Z,310
2018-05-23T09:41:47.880Z,395
2018-05-23T09:42:47.399Z,360
2018-05-23T09:43:47.672Z,490
2018-05-23T09:44:47.508Z,360
2018-05-23T09:45:47.547Z,340
2018-05-23T09:46:47.504Z,490
2018-05-23T09:47:48.040Z,410
2018-05-23T09:48:48.074Z,530
2018-05-23T09:49:47.839Z,525
2018-05-23T09:50:47.614Z,550
2018-05-23T09:51:47.386Z,565
2018-05-23T09:52:48.170Z,575
2018-05-23T09:53:47.957Z,590
2018-05-23T09:54:47.776Z,600
2018-05-23T09:55:48.254Z,595
2018-05-23T09:56:48.049Z,590
2018-05-23T09:57:48.323Z,590
2018-05-23T09:58:48.352Z,595
2018-05-23T09:59:48.182Z,600
2018-05-23T10:00:48.412Z,605
2018-05-23T10:01:48.264Z,595
2018-05-23T10:02:47.973Z,595
2018-05-23T10:03:48.262Z,585
2018-05-23T10:04:48.277Z,595
2018-05-23T10:05:48.066Z,605
2018-05-23T10:06:48.343Z,600
2018-05-23T10:07:47.872Z,590
2018-05-23T10:08:48.662Z,490
2018-05-23T10:09:48.586Z,360
2018-05-23T10:10:48.219Z,345
2018-05-23T10:11:48.758Z,340
2018-05-23T10:12:48.784Z,330
2018-05-23T10:13:48.566Z,340
2018-05-23T10:14:48.342Z,335
2018-05-23T10:15:48.380Z,335
2018-05-23T10:16:48.923Z,345
2018-05-23T10:17:48.188Z,350
2018-05-23T10:18:48.725Z,545
2018-05-23T10:19:48.825Z,585
2018-05-23T10:20:48.533Z,600
2018-05-23T10:21:49.071Z,450
2018-05-23T10:22:49.104Z,435
2018-05-23T10:23:48.634Z,425
2018-05-23T10:24:48.918Z,460
2018-05-23T10:25:48.945Z,525
2018-05-23T10:26:49.446Z,600
2018-05-23T10:27:49.091Z,635
2018-05-23T10:28:48.780Z,555
2018-05-23T10:29:49.076Z,650
2018-05-23T10:30:48.858Z,665
2018-05-23T10:31:49.389Z,670
2018-05-23T10:32:49.186Z,660
2018-05-23T10:33:49.441Z,445
2018-05-23T10:34:49.264Z,505
2018-05-23T10:35:49.257Z,475
2018-05-23T10:36:49.288Z,405
2018-05-23T10:37:49.577Z,395
2018-05-23T10:38:49.367Z,395
2018-05-23T10:39:49.441Z,410
2018-05-23T10:40:49.409Z,420
2018-05-23T10:41:49.442Z,430
2018-05-23T10:42:49.474Z,410
2018-05-23T10:43:49.760Z,425
2018-05-23T10:44:49.793Z,565
2018-05-23T10:45:49.781Z,435
2018-05-23T10:46:49.312Z,440
2018-05-23T10:47:49.340Z,445
2018-05-23T10:48:49.878Z,460
2018-05-23T10:49:49.399Z,490
2018-05-23T10:50:49.696Z,445
2018-05-23T10:51:49.968Z,430
2018-05-23T10:52:49.534Z,435
2018-05-23T10:53:50.067Z,500
2018-05-23T10:54:50.100Z,680
2018-05-23T10:55:49.870Z,615
2018-05-23T10:56:49.895Z,475
2018-05-23T10:57:49.925Z,395
2018-05-23T10:58:49.702Z,405
2018-05-23T10:59:49.782Z,420
2018-05-23T11:00:49.769Z,665
2018-05-23T11:01:49.798Z,470
2018-05-23T11:02:50.454Z,490
2018-05-23T11:03:50.381Z,440
2018-05-23T11:04:50.151Z,495
2018-05-23T11:05:51.015Z,685
2018-05-23T11:06:49.956Z,620
2018-05-23T11:07:49.982Z,410
2018-05-23T11:08:50.278Z,405
2018-05-23T11:09:50.758Z,410
2018-05-23T11:10:50.582Z,415
2018-05-23T11:11:50.368Z,425
2018-05-23T11:12:50.461Z,450
2018-05-23T11:13:50.430Z,480
2018-05-23T11:14:50.708Z,750
2018-05-23T11:15:50.249Z,475
2018-05-23T11:16:50.777Z,475
2018-05-23T11:17:50.052Z,480
2018-05-23T11:18:50.320Z,475
2018-05-23T11:19:50.355Z,445
2018-05-23T11:20:50.884Z,470
2018-05-23T11:21:50.162Z,655
2018-05-23T11:22:50.447Z,445
2018-05-23T11:23:50.991Z,545
2018-05-23T11:24:50.815Z,790
2018-05-23T11:25:50.551Z,825
2018-05-23T11:26:51.111Z,850
2018-05-23T11:27:51.123Z,840
2018-05-23T11:28:50.922Z,805
2018-05-23T11:29:51.292Z,485
2018-05-23T11:30:50.967Z,450
2018-05-23T11:31:51.253Z,430
2018-05-23T11:32:50.770Z,425
2018-05-23T11:33:51.139Z,415
2018-05-23T11:34:50.847Z,420
2018-05-23T11:35:51.195Z,440
2018-05-23T11:36:50.899Z,485
2018-05-23T11:37:51.442Z,555
2018-05-23T11:38:51.473Z,730
2018-05-23T11:39:51.410Z,1000
2018-05-23T11:40:51.287Z,1020
2018-05-23T11:41:51.567Z,1035
2018-05-23T11:42:51.600Z,1055
2018-05-23T11:43:51.386Z,625
2018-05-23T11:44:51.409Z,1040
2018-05-23T11:45:51.699Z,595
2018-05-23T11:46:52.054Z,560
2018-05-23T11:47:51.513Z,525
2018-05-23T11:48:51.807Z,510
2018-05-23T11:49:51.630Z,505
2018-05-23T11:50:51.609Z,490
2018-05-23T11:51:51.901Z,460
2018-05-23T11:52:51.673Z,435
2018-05-23T11:53:51.971Z,430
2018-05-23T11:54:51.704Z,425
2018-05-23T11:55:52.024Z,420
2018-05-23T11:56:51.786Z,420
2018-05-23T11:57:51.815Z,415
2018-05-23T11:58:51.853Z,425
2018-05-23T11:59:52.140Z,450
2018-05-23T12:00:52.173Z,560
2018-05-23T12:01:52.108Z,780
2018-05-23T12:02:52.302Z,990
2018-05-23T12:03:51.765Z,530
2018-05-23T12:04:52.097Z,480
2018-05-23T12:05:52.326Z,540
2018-05-23T12:06:52.372Z,1000
2018-05-23T12:07:52.168Z,1020
2018-05-23T12:08:52.439Z,1040
2018-05-23T12:09:52.027Z,1080
2018-05-23T12:10:52.821Z,1145
2018-05-23T12:11:52.564Z,1260
2018-05-23T12:12:52.574Z,1305
2018-05-23T12:13:52.339Z,1435
2018-05-23T12:14:52.164Z,1560
2018-05-23T12:15:52.867Z,1610
2018-05-23T12:16:52.414Z,1675
2018-05-23T12:17:52.448Z,1655
2018-05-23T12:18:52.732Z,1650
2018-05-23T12:19:52.995Z,1680
2018-05-23T12:20:52.795Z,1730
2018-05-23T12:21:52.591Z,1640
2018-05-23T12:22:52.365Z,1540
2018-05-23T12:23:52.712Z,600
2018-05-23T12:24:52.988Z,570
2018-05-23T12:25:52.727Z,620
2018-05-23T12:26:52.781Z,1490
2018-05-23T12:27:52.311Z,1890
2018-05-23T12:28:53.106Z,1960
2018-05-23T12:29:52.644Z,1915
2018-05-23T12:30:52.919Z,1745
2018-05-23T12:31:53.203Z,2040
2018-05-23T12:32:53.250Z,1950
2018-05-23T12:33:53.035Z,1915
2018-05-23T12:34:52.811Z,1915
2018-05-23T12:35:53.092Z,1885
2018-05-23T12:36:53.388Z,1855
2018-05-23T12:37:52.926Z,1865
2018-05-23T12:38:53.195Z,1805
2018-05-23T12:39:53.551Z,1860
2018-05-23T12:40:53.611Z,1915
2018-05-23T12:41:53.312Z,1920
2018-05-23T12:42:53.091Z,1950
2018-05-23T12:43:53.377Z,2040
2018-05-23T12:44:53.671Z,2065
2018-05-23T12:45:53.448Z,2055
2018-05-23T12:46:53.469Z,2000
2018-05-23T12:47:53.505Z,1855
2018-05-23T12:48:53.561Z,2015
2018-05-23T12:49:53.604Z,2170
2018-05-23T12:50:53.897Z,2060
2018-05-23T12:51:53.689Z,1925
2018-05-23T12:52:53.977Z,1985
2018-05-23T12:53:54.054Z,1960
2018-05-23T12:54:53.580Z,2040
2018-05-23T12:55:53.830Z,1580
2018-05-23T12:56:53.868Z,1780
2018-05-23T12:57:54.174Z,1550
2018-05-23T12:58:54.189Z,1905
2018-05-23T12:59:54.298Z,1875
2018-05-23T13:00:54.268Z,1860
2018-05-23T13:01:53.800Z,1650
2018-05-23T13:02:54.088Z,1590
2018-05-23T13:03:54.395Z,1750
2018-05-23T13:04:54.177Z,1870
2018-05-23T13:05:53.681Z,1745
2018-05-23T13:06:54.229Z,1205
2018-05-23T13:07:54.095Z,860
2018-05-23T13:08:54.047Z,660
2018-05-23T13:09:54.709Z,1775
2018-05-23T13:10:54.139Z,1765
2018-05-23T13:11:54.430Z,1765
2018-05-23T13:12:54.211Z,1740
2018-05-23T13:13:54.504Z,1865
2018-05-23T13:14:54.805Z,2115
2018-05-23T13:15:54.813Z,2105
2018-05-23T13:16:54.847Z,1900
2018-05-23T13:17:55.186Z,1820
2018-05-23T13:18:54.933Z,1815
2018-05-23T13:19:54.455Z,1870
2018-05-23T13:20:54.496Z,1830
2018-05-23T13:21:54.782Z,1855
2018-05-23T13:22:54.575Z,1875
2018-05-23T13:23:55.114Z,1595
2018-05-23T13:24:54.960Z,1335
2018-05-23T13:25:55.543Z,1300
2018-05-23T13:26:54.997Z,1390
2018-05-23T13:27:55.284Z,1715
2018-05-23T13:28:55.322Z,1455
2018-05-23T13:29:55.368Z,670
2018-05-23T13:30:55.407Z,625
2018-05-23T13:31:55.192Z,640
2018-05-23T13:32:55.488Z,1665
2018-05-23T13:33:55.020Z,1685
2018-05-23T13:34:55.419Z,1775
2018-05-23T13:35:55.609Z,735
2018-05-23T13:36:55.647Z,790
2018-05-23T13:37:55.678Z,1020
2018-05-23T13:38:55.584Z,655
2018-05-23T13:39:55.817Z,620
2018-05-23T13:40:55.791Z,600
2018-05-23T13:41:55.320Z,595
2018-05-23T13:42:55.870Z,560
2018-05-23T13:43:55.644Z,535
2018-05-23T13:44:55.685Z,530
2018-05-23T13:45:55.975Z,540
2018-05-23T13:46:55.751Z,1695
2018-05-23T13:47:55.523Z,685
2018-05-23T13:48:55.569Z,590
2018-05-23T13:49:55.607Z,590
2018-05-23T13:50:55.387Z,660
2018-05-23T13:51:55.669Z,760
2018-05-23T13:52:55.699Z,2000
2018-05-23T13:53:56.250Z,1800
2018-05-23T13:54:57.534Z,2265
2018-05-23T13:55:56.058Z,2170
2018-05-23T13:56:56.360Z,1680
2018-05-23T13:57:56.130Z,1305
2018-05-23T13:58:55.913Z,1725
2018-05-23T13:59:56.212Z,645
2018-05-23T14:00:56.495Z,590